Time;durP1;ratioP1;P1;durP2;ratioP2;P2;SDS_P1;SDS_P2;PMS_P1;PMS_P2;Temp;Humidity;BMP_temperature;BMP_pressure;BME280_temperature;BME280_humidity;BME280_pressure;Samples;Min_cycle;Max_cycle;Signal;HPM_P1;HPM_P2
2023/11/12 00:01:32;;;;;;;5.40;2.50;;;13.80;89.90;;;;;;5017053;28;20075;-77
2023/11/12 00:03:58;;;;;;;4.65;2.65;;;13.80;90.00;;;;;;5016476;28;20483;-77
2023/11/12 00:06:23;;;;;;;4.38;2.53;;;13.80;90.00;;;;;;5017177;28;20025;-77
2023/11/12 00:08:49;;;;;;;4.22;2.65;;;13.80;90.00;;;;;;5017025;28;20033;-79
2023/11/12 00:11:15;;;;;;;4.38;2.72;;;13.80;90.00;;;;;;5017192;28;20052;-77
2023/11/12 00:13:41;;;;;;;4.68;2.47;;;13.80;90.00;;;;;;5017231;28;20041;-78
2023/11/12 00:16:07;;;;;;;4.97;2.78;;;13.80;90.00;;;;;;5017397;28;20056;-78
2023/11/12 00:18:34;;;;;;;5.35;2.83;;;13.80;90.20;;;;;;5017105;28;20163;-78
2023/11/12 00:20:59;;;;;;;5.95;3.08;;;13.80;90.00;;;;;;5018430;28;20571;-80
2023/11/12 00:23:26;;;;;;;6.68;2.65;;;13.80;90.00;;;;;;5017527;28;20053;-78
2023/11/12 00:25:53;;;;;;;6.18;3.25;;;13.70;90.00;;;;;;5018113;28;20399;-78
2023/11/12 00:28:19;;;;;;;5.90;2.90;;;13.80;90.00;;;;;;5018201;28;20071;-78
2023/11/12 00:30:45;;;;;;;5.22;2.83;;;13.80;90.10;;;;;;5018435;28;20499;-79
2023/11/12 00:33:10;;;;;;;6.05;3.38;;;13.70;90.00;;;;;;5017542;28;20083;-77
2023/11/12 00:35:36;;;;;;;4.75;2.90;;;13.70;90.00;;;;;;5015993;28;20029;-76
2023/11/12 00:38:02;;;;;;;6.15;3.20;;;13.70;90.10;;;;;;5015764;28;20070;-78
2023/11/12 00:40:29;;;;;;;6.10;3.53;;;13.70;90.10;;;;;;5015806;28;20018;-77
2023/11/12 00:42:56;;;;;;;5.63;3.30;;;13.70;90.00;;;;;;5033725;28;20589;-77
2023/11/12 00:45:22;;;;;;;5.63;3.53;;;13.70;90.10;;;;;;5015698;28;20044;-77
2023/11/12 00:47:48;;;;;;;5.90;3.42;;;13.80;90.00;;;;;;5015979;28;20021;-77
2023/11/12 00:50:16;;;;;;;5.38;3.17;;;13.80;90.00;;;;;;5033186;28;20581;-77
2023/11/12 00:52:41;;;;;;;6.13;3.40;;;13.80;90.00;;;;;;5033442;28;20109;-77
2023/11/12 00:55:07;;;;;;;5.78;3.47;;;13.80;89.80;;;;;;5018513;28;20502;-77
2023/11/12 00:57:33;;;;;;;5.65;3.25;;;13.80;89.90;;;;;;5054000;28;20032;-77
2023/11/12 00:59:58;;;;;;;5.72;3.67;;;13.80;89.90;;;;;;5035216;28;20518;-77
2023/11/12 01:02:24;;;;;;;5.60;3.80;;;13.80;89.60;;;;;;5035331;28;20071;-77
2023/11/12 01:04:50;;;;;;;6.18;3.88;;;13.80;89.60;;;;;;5035098;28;20021;-77
2023/11/12 01:07:15;;;;;;;7.03;3.75;;;13.80;89.60;;;;;;5053279;28;20546;-78
2023/11/12 01:09:41;;;;;;;5.95;3.70;;;13.80;89.60;;;;;;5034777;28;20075;-77
2023/11/12 01:12:08;;;;;;;6.65;3.85;;;13.80;89.60;;;;;;5034167;28;20029;-77
2023/11/12 01:14:34;;;;;;;5.75;3.50;;;13.80;89.60;;;;;;5034823;28;20391;-77
2023/11/12 01:17:00;;;;;;;6.07;3.67;;;13.90;89.80;;;;;;5035011;28;20032;-79
2023/11/12 01:19:25;;;;;;;6.47;3.55;;;13.80;89.70;;;;;;5052540;28;20100;-77
2023/11/12 01:21:51;;;;;;;5.90;3.50;;;13.80;89.80;;;;;;5035430;28;20021;-79
2023/11/12 01:24:16;;;;;;;6.15;3.75;;;13.70;89.80;;;;;;5034477;28;20036;-77
2023/11/12 01:26:43;;;;;;;5.93;3.67;;;13.70;89.90;;;;;;5034980;28;20025;-77
2023/11/12 01:29:08;;;;;;;6.55;3.70;;;13.70;89.90;;;;;;5034799;28;20021;-77
2023/11/12 01:31:34;;;;;;;6.93;4.25;;;13.70;89.90;;;;;;5052830;28;20036;-76
2023/11/12 01:34:00;;;;;;;6.55;3.95;;;13.70;90.00;;;;;;5052730;28;20051;-77
2023/11/12 01:36:25;;;;;;;6.60;4.07;;;13.80;90.00;;;;;;5052488;28;20032;-77
2023/11/12 01:38:52;;;;;;;6.28;3.90;;;13.70;90.00;;;;;;5034632;28;20383;-77
2023/11/12 01:41:18;;;;;;;5.88;3.90;;;13.70;90.00;;;;;;5052376;28;20104;-77
2023/11/12 01:43:43;;;;;;;6.65;3.90;;;13.70;90.00;;;;;;5052648;28;20486;-79
2023/11/12 01:46:09;;;;;;;6.07;3.88;;;13.70;90.00;;;;;;5034675;28;20037;-79
2023/11/12 01:48:35;;;;;;;7.50;4.40;;;13.70;90.00;;;;;;5034968;28;20410;-79
2023/11/12 01:51:04;;;;;;;6.32;4.07;;;13.70;90.00;;;;;;5037750;28;20029;-79
2023/11/12 01:53:31;;;;;;;6.32;4.07;;;13.70;90.00;;;;;;5053096;28;20103;-79
2023/11/12 01:55:57;;;;;;;7.18;4.30;;;13.70;90.00;;;;;;5055356;28;20083;-79
2023/11/12 01:58:23;;;;;;;6.05;4.10;;;13.70;90.00;;;;;;5036925;28;20024;-78
2023/11/12 02:00:49;;;;;;;6.53;4.25;;;13.70;90.00;;;;;;5053738;28;20430;-79
2023/11/12 02:03:18;;;;;;;6.63;4.00;;;13.70;90.00;;;;;;5036964;28;20170;-79
2023/11/12 02:05:43;;;;;;;6.68;4.30;;;13.70;90.00;;;;;;5054263;28;20029;-79
2023/11/12 02:08:09;;;;;;;6.63;4.30;;;13.70;90.00;;;;;;5038919;28;20044;-79
2023/11/12 02:10:35;;;;;;;7.13;4.57;;;13.60;90.00;;;;;;5039080;28;20025;-78
2023/11/12 02:13:06;;;;;;;6.57;4.65;;;13.70;90.00;;;;;;5038558;28;20079;-78
2023/11/12 02:15:33;;;;;;;6.55;4.68;;;13.70;90.00;;;;;;5039840;28;20025;-79
2023/11/12 02:17:58;;;;;;;6.28;4.20;;;13.70;90.00;;;;;;5038672;28;20125;-79
2023/11/12 02:20:25;;;;;;;6.25;4.00;;;13.70;90.00;;;;;;5055867;28;20036;-79
2023/11/12 02:22:50;;;;;;;6.70;4.18;;;13.70;90.00;;;;;;5038228;28;20021;-79
2023/11/12 02:25:16;;;;;;;6.80;4.57;;;13.70;89.90;;;;;;5040451;28;20029;-78
2023/11/12 02:27:44;;;;;;;7.22;4.55;;;13.80;89.80;;;;;;5038945;28;20025;-79
2023/11/12 02:30:10;;;;;;;6.30;4.00;;;13.80;89.70;;;;;;5055439;28;20031;-78
2023/11/12 02:32:36;;;;;;;6.85;4.43;;;13.80;89.60;;;;;;5056405;28;20512;-79
2023/11/12 02:35:03;;;;;;;6.38;4.30;;;13.80;89.50;;;;;;5038074;28;20021;-78
2023/11/12 02:37:29;;;;;;;7.10;4.40;;;13.80;89.50;;;;;;5040685;28;20025;-79
2023/11/12 02:39:54;;;;;;;7.40;4.72;;;13.80;89.50;;;;;;5064247;28;20084;-80
2023/11/12 02:42:21;;;;;;;7.00;4.60;;;13.70;89.50;;;;;;5058854;28;20111;-77
2023/11/12 02:44:47;;;;;;;7.15;4.40;;;13.70;89.50;;;;;;5037907;28;20103;-79
2023/11/12 02:47:13;;;;;;;6.65;4.40;;;13.70;89.70;;;;;;5038388;28;20021;-79
2023/11/12 02:50:09;;;;;;;6.30;4.43;;;13.70;89.70;;;;;;5057185;28;20053;-79
2023/11/12 02:52:34;;;;;;;6.55;4.28;;;13.70;89.70;;;;;;5058690;28;20426;-79
2023/11/12 02:55:00;;;;;;;7.28;4.90;;;13.70;89.80;;;;;;5045579;28;20033;-79
2023/11/12 02:57:26;;;;;;;5.80;4.30;;;13.70;89.90;;;;;;5063621;28;20096;-79
2023/11/12 02:59:53;;;;;;;6.75;4.40;;;13.70;89.90;;;;;;5044345;28;20594;-78
2023/11/12 03:02:19;;;;;;;6.20;4.32;;;13.70;90.00;;;;;;5045048;28;20021;-78
2023/11/12 03:04:44;;;;;;;6.97;4.45;;;13.70;90.00;;;;;;5057409;28;20080;-78
2023/11/12 03:07:10;;;;;;;6.95;4.78;;;13.70;90.00;;;;;;5040939;28;20044;-78
2023/11/12 03:09:35;;;;;;;7.30;4.70;;;13.70;90.00;;;;;;5062053;28;20036;-79
2023/11/12 03:12:04;;;;;;;6.68;4.47;;;13.60;90.00;;;;;;5044731;28;20028;-78
2023/11/12 03:14:33;;;;;;;6.90;4.70;;;13.70;90.00;;;;;;5044233;28;20399;-78
2023/11/12 03:16:59;;;;;;;7.47;4.80;;;13.70;90.00;;;;;;5059753;28;20021;-78
2023/11/12 03:19:25;;;;;;;7.10;4.68;;;13.70;90.00;;;;;;5043591;28;20025;-78
2023/11/12 03:21:55;;;;;;;7.70;4.55;;;13.60;90.00;;;;;;5062083;28;20021;-79
2023/11/12 03:24:21;;;;;;;6.88;4.65;;;13.70;90.00;;;;;;5061481;28;20017;-78
2023/11/12 03:26:46;;;;;;;6.53;4.20;;;13.60;90.00;;;;;;5042892;28;20078;-78
2023/11/12 03:29:12;;;;;;;6.47;4.20;;;13.60;90.00;;;;;;5055427;28;20028;-78
2023/11/12 03:31:38;;;;;;;6.57;4.43;;;13.70;90.00;;;;;;5060772;28;20407;-78
2023/11/12 03:34:04;;;;;;;7.10;4.50;;;13.70;90.30;;;;;;5060403;28;20040;-79
2023/11/12 03:36:30;;;;;;;6.85;4.82;;;13.60;90.00;;;;;;5040966;28;20033;-78
2023/11/12 03:38:55;;;;;;;6.57;4.35;;;13.60;90.00;;;;;;5058661;28;20031;-78
2023/11/12 03:41:21;;;;;;;6.82;4.60;;;13.60;90.10;;;;;;5041533;28;20518;-78
2023/11/12 03:43:46;;;;;;;6.95;4.80;;;13.60;90.00;;;;;;5041302;28;20033;-78
2023/11/12 03:46:12;;;;;;;6.75;4.45;;;13.70;90.10;;;;;;5040206;28;20040;-79
2023/11/12 03:48:38;;;;;;;6.57;4.40;;;13.60;90.00;;;;;;5040258;28;20049;-78
2023/11/12 03:51:03;;;;;;;6.57;4.38;;;13.70;90.00;;;;;;5057324;28;20518;-78
2023/11/12 03:53:29;;;;;;;6.32;4.20;;;13.70;90.00;;;;;;5057204;28;20033;-78
2023/11/12 03:55:54;;;;;;;7.00;4.90;;;13.70;89.90;;;;;;5058997;28;20033;-78
2023/11/12 03:58:20;;;;;;;6.90;4.50;;;13.80;89.80;;;;;;5060021;28;20099;-79
2023/11/12 04:00:45;;;;;;;6.47;4.60;;;13.70;89.70;;;;;;5063922;28;20040;-79
2023/11/12 04:03:11;;;;;;;6.75;4.65;;;13.80;89.70;;;;;;5063409;28;20063;-79
2023/11/12 04:05:37;;;;;;;7.10;4.90;;;13.70;89.50;;;;;;5062772;28;20040;-79
2023/11/12 04:08:02;;;;;;;6.70;4.57;;;13.80;89.50;;;;;;5063020;28;20033;-79
2023/11/12 04:10:28;;;;;;;6.18;4.25;;;13.80;89.50;;;;;;5062558;28;20036;-78
2023/11/12 04:12:53;;;;;;;6.72;4.60;;;13.70;89.40;;;;;;5062159;28;20044;-79
2023/11/12 04:15:19;;;;;;;6.93;4.68;;;13.70;89.50;;;;;;5044369;28;20029;-79
2023/11/12 04:17:45;;;;;;;6.85;5.03;;;13.70;89.60;;;;;;5044548;28;20025;-78
2023/11/12 04:20:10;;;;;;;7.10;4.80;;;13.70;89.70;;;;;;5043245;28;20031;-78
2023/11/12 04:22:36;;;;;;;6.93;4.75;;;13.70;89.70;;;;;;5037651;28;20044;-78
2023/11/12 04:25:04;;;;;;;7.22;4.70;;;13.70;89.80;;;;;;5043740;28;20013;-78
2023/11/12 04:27:30;;;;;;;6.95;4.90;;;13.60;89.70;;;;;;5043200;28;20021;-78
2023/11/12 04:29:56;;;;;;;6.75;4.60;;;13.60;89.80;;;;;;5042301;28;20096;-78
2023/11/12 04:32:21;;;;;;;6.78;4.70;;;13.60;89.90;;;;;;5042187;28;20059;-79
2023/11/12 04:34:47;;;;;;;7.15;4.95;;;13.60;90.10;;;;;;5042222;28;20483;-79
2023/11/12 04:37:13;;;;;;;6.75;4.88;;;13.60;89.90;;;;;;5041814;28;20031;-79
2023/11/12 04:39:39;;;;;;;7.00;4.88;;;13.60;90.00;;;;;;5059739;28;20027;-79
2023/11/12 04:42:06;;;;;;;6.60;4.72;;;13.60;90.00;;;;;;5041446;28;20021;-79
2023/11/12 04:44:31;;;;;;;6.88;4.82;;;13.60;90.00;;;;;;5059489;28;20438;-78
2023/11/12 04:46:57;;;;;;;10.00;5.47;;;13.60;90.00;;;;;;5059545;28;20037;-78
2023/11/12 04:49:24;;;;;;;6.95;5.03;;;13.60;90.00;;;;;;5058679;28;20107;-79
2023/11/12 04:51:50;;;;;;;6.88;4.80;;;13.60;90.00;;;;;;5059306;28;20116;-78
2023/11/12 04:54:15;;;;;;;6.70;4.80;;;13.60;90.00;;;;;;5040599;28;20071;-78
2023/11/12 04:56:45;;;;;;;7.32;5.07;;;13.50;90.00;;;;;;5040145;28;20025;-78
2023/11/12 04:59:11;;;;;;;7.05;5.38;;;13.60;90.00;;;;;;5041175;28;20028;-79
2023/11/12 05:01:36;;;;;;;6.68;4.82;;;13.60;90.00;;;;;;5058472;28;20021;-79
2023/11/12 05:04:02;;;;;;;7.97;5.63;;;13.60;90.00;;;;;;5058837;28;20048;-78
2023/11/12 05:06:29;;;;;;;6.78;4.72;;;13.60;90.00;;;;;;5038033;28;20037;-78
2023/11/12 05:08:55;;;;;;;7.57;5.07;;;13.60;90.00;;;;;;5040014;28;20025;-78
2023/11/12 05:11:20;;;;;;;7.22;4.75;;;13.60;90.00;;;;;;5058243;28;20091;-78
2023/11/12 05:13:46;;;;;;;6.60;4.40;;;13.50;90.00;;;;;;5039762;28;20120;-79
2023/11/12 05:16:11;;;;;;;7.03;5.10;;;13.50;90.00;;;;;;5052561;28;20033;-79
2023/11/12 05:18:37;;;;;;;6.70;4.80;;;13.60;90.00;;;;;;5057312;28;20036;-78
2023/11/12 05:21:05;;;;;;;6.88;4.57;;;13.60;90.00;;;;;;5039353;28;20024;-78
2023/11/12 05:23:32;;;;;;;6.50;4.70;;;13.60;90.00;;;;;;5038808;28;20510;-79
2023/11/12 05:25:59;;;;;;;7.03;5.00;;;13.60;90.00;;;;;;5056883;28;20032;-78
2023/11/12 05:28:25;;;;;;;6.70;4.57;;;13.60;89.90;;;;;;5056023;28;20112;-79
2023/11/12 05:30:51;;;;;;;6.78;4.43;;;13.60;89.80;;;;;;5056599;28;20448;-78
2023/11/12 05:33:16;;;;;;;7.03;4.95;;;13.70;89.80;;;;;;5038067;28;20027;-78
2023/11/12 05:35:42;;;;;;;7.30;5.22;;;13.70;89.70;;;;;;5056295;28;20025;-78
2023/11/12 05:38:08;;;;;;;7.50;5.30;;;13.70;89.70;;;;;;5038080;28;20512;-76
2023/11/12 05:40:34;;;;;;;6.65;4.55;;;13.70;89.60;;;;;;5055580;28;20123;-78
2023/11/12 05:43:00;;;;;;;6.97;5.13;;;13.70;89.50;;;;;;5038296;28;20021;-78
2023/11/12 05:45:26;;;;;;;7.22;5.07;;;13.70;89.50;;;;;;5079019;23;20351;-80
2023/11/12 05:47:51;;;;;;;7.47;4.80;;;13.70;89.50;;;;;;5036631;28;20031;-84
2023/11/12 05:50:17;;;;;;;6.55;4.80;;;13.70;89.60;;;;;;5036258;28;20017;-83
2023/11/12 05:52:43;;;;;;;6.60;4.85;;;13.60;89.60;;;;;;5036854;28;20025;-84
2023/11/12 05:55:09;;;;;;;7.18;5.18;;;13.60;89.60;;;;;;5054467;28;20447;-83
2023/11/12 05:57:35;;;;;;;7.18;5.18;;;13.60;89.70;;;;;;5036876;28;20017;-83
2023/11/12 06:00:00;;;;;;;7.38;5.30;;;13.60;89.80;;;;;;5036442;28;20083;-83
2023/11/12 06:02:26;;;;;;;7.43;5.22;;;13.60;89.80;;;;;;5054412;28;20025;-83
2023/11/12 06:04:51;;;;;;;7.47;5.15;;;13.60;89.90;;;;;;5054093;28;20017;-83
2023/11/12 06:07:17;;;;;;;6.80;5.13;;;13.60;89.90;;;;;;5055094;28;20398;-82
2023/11/12 06:09:44;;;;;;;7.13;5.18;;;13.60;90.00;;;;;;5037022;28;20056;-83
2023/11/12 06:12:09;;;;;;;6.75;4.82;;;13.50;89.90;;;;;;5055356;28;20021;-83
2023/11/12 06:14:36;;;;;;;7.10;5.05;;;13.60;90.00;;;;;;5054917;28;20025;-83
2023/11/12 06:17:03;;;;;;;7.03;4.78;;;13.50;89.90;;;;;;5037079;28;20032;-81
2023/11/12 06:19:28;;;;;;;7.07;5.13;;;13.50;89.90;;;;;;5036750;28;20032;-83
2023/11/12 06:21:56;;;;;;;7.25;5.05;;;13.50;90.00;;;;;;5040028;28;20013;-82
2023/11/12 06:24:21;;;;;;;7.22;5.32;;;13.60;90.00;;;;;;5052403;28;20108;-82
2023/11/12 06:26:47;;;;;;;7.18;5.43;;;13.60;90.00;;;;;;5049390;28;20727;-85
2023/11/12 06:29:12;;;;;;;7.07;5.05;;;13.60;90.00;;;;;;5049086;28;20494;-82
2023/11/12 06:31:39;;;;;;;7.20;5.13;;;13.60;90.00;;;;;;5033489;28;20033;-82
2023/11/12 06:34:04;;;;;;;7.57;5.38;;;13.50;90.00;;;;;;5048010;28;20051;-83
2023/11/12 06:36:30;;;;;;;6.72;4.75;;;13.50;90.00;;;;;;5035296;28;20060;-81
2023/11/12 06:38:56;;;;;;;6.63;4.93;;;13.50;90.00;;;;;;5033963;28;20055;-82
2023/11/12 06:41:21;;;;;;;8.88;5.28;;;13.50;90.00;;;;;;5033857;28;20029;-82
2023/11/12 06:43:47;;;;;;;7.28;5.57;;;13.50;90.00;;;;;;5033886;28;20028;-83
2023/11/12 06:46:12;;;;;;;6.93;4.82;;;13.60;90.00;;;;;;5033796;28;20060;-83
2023/11/12 06:48:38;;;;;;;6.75;4.97;;;13.50;90.00;;;;;;5033388;28;20036;-82
2023/11/12 06:51:03;;;;;;;7.55;5.32;;;13.50;90.00;;;;;;5033651;28;20074;-82
2023/11/12 06:53:29;;;;;;;7.80;5.07;;;13.50;90.00;;;;;;5037804;28;20037;-82
2023/11/12 06:55:54;;;;;;;6.43;4.75;;;13.60;90.10;;;;;;5037471;28;20399;-83
2023/11/12 06:58:20;;;;;;;6.70;4.70;;;13.60;90.00;;;;;;5037332;28;20506;-82
2023/11/12 07:00:45;;;;;;;7.03;5.30;;;13.60;90.00;;;;;;5038575;28;20051;-82
2023/11/12 07:03:11;;;;;;;6.68;4.80;;;13.60;90.10;;;;;;5055551;28;20555;-84
2023/11/12 07:05:38;;;;;;;6.45;4.78;;;13.60;89.90;;;;;;5036464;28;20457;-83
2023/11/12 07:08:04;;;;;;;6.90;5.00;;;13.60;89.80;;;;;;5036376;28;20094;-83
2023/11/12 07:10:30;;;;;;;6.57;4.53;;;13.60;89.70;;;;;;5036981;28;20036;-83
2023/11/12 07:12:57;;;;;;;6.63;4.90;;;13.70;89.70;;;;;;5038128;28;20380;-83
2023/11/12 07:15:22;;;;;;;6.68;5.10;;;13.60;89.60;;;;;;5037695;28;20368;-83
2023/11/12 07:17:51;;;;;;;7.47;4.88;;;13.60;89.50;;;;;;5047014;28;20101;-82
2023/11/12 07:20:17;;;;;;;7.20;5.20;;;13.60;89.50;;;;;;5034706;28;20057;-82
2023/11/12 07:22:44;;;;;;;6.80;4.97;;;13.60;89.50;;;;;;5017899;28;20539;-83
2023/11/12 07:25:10;;;;;;;6.88;4.90;;;13.60;89.50;;;;;;5034901;28;20033;-81
2023/11/12 07:27:36;;;;;;;7.20;5.82;;;13.60;89.50;;;;;;5035298;28;20022;-82
2023/11/12 07:30:02;;;;;;;7.30;4.95;;;13.60;89.60;;;;;;5036130;28;20034;-82
2023/11/12 07:32:28;;;;;;;8.10;5.40;;;13.60;89.60;;;;;;5034968;28;20021;-83
2023/11/12 07:34:54;;;;;;;6.93;5.10;;;13.50;89.70;;;;;;5034719;28;20029;-82
2023/11/12 07:37:20;;;;;;;7.25;5.50;;;13.50;89.70;;;;;;5034951;28;20545;-83
2023/11/12 07:39:45;;;;;;;7.25;5.20;;;13.50;89.70;;;;;;5018035;28;20502;-83
2023/11/12 07:42:11;;;;;;;6.82;4.88;;;13.50;89.80;;;;;;5051877;28;20025;-82
2023/11/12 07:44:36;;;;;;;7.45;5.40;;;13.60;89.90;;;;;;5054623;28;20558;-84
2023/11/12 07:47:04;;;;;;;6.55;4.75;;;13.50;89.80;;;;;;5053589;28;20037;-83
2023/11/12 07:49:30;;;;;;;7.45;5.53;;;13.50;89.90;;;;;;5054418;28;20112;-83
2023/11/12 07:51:56;;;;;;;6.75;4.63;;;13.50;89.90;;;;;;5056256;28;20086;-83
2023/11/12 07:54:21;;;;;;;7.50;5.47;;;13.50;89.90;;;;;;5054420;28;20033;-82
2023/11/12 07:56:47;;;;;;;7.00;5.07;;;13.50;89.90;;;;;;5054095;28;20028;-83
2023/11/12 07:59:13;;;;;;;6.85;4.80;;;13.50;89.90;;;;;;5053337;28;20589;-81
2023/11/12 08:01:38;;;;;;;7.18;4.85;;;13.50;89.90;;;;;;5054005;28;20021;-83
2023/11/12 08:04:04;;;;;;;7.20;5.43;;;13.50;89.90;;;;;;5054129;28;20543;-83
2023/11/12 08:06:30;;;;;;;7.20;5.50;;;13.50;89.90;;;;;;5053614;28;20105;-83
2023/11/12 08:08:55;;;;;;;7.70;4.95;;;13.50;89.90;;;;;;5054406;28;20136;-84
2023/11/12 08:11:21;;;;;;;7.00;5.30;;;13.50;89.90;;;;;;5051856;28;20578;-83
2023/11/12 08:13:47;;;;;;;6.90;5.00;;;13.50;89.90;;;;;;5052686;28;20057;-81
2023/11/12 08:16:13;;;;;;;7.30;4.97;;;13.50;89.90;;;;;;5051331;28;20454;-81
2023/11/12 08:18:43;;;;;;;7.63;5.47;;;13.50;89.90;;;;;;5052162;28;20021;-82
2023/11/12 08:21:09;;;;;;;7.75;5.40;;;13.50;89.80;;;;;;5051870;28;20021;-82
2023/11/12 08:23:35;;;;;;;7.32;5.20;;;13.50;89.80;;;;;;5052543;28;20032;-83
2023/11/12 08:26:01;;;;;;;7.40;5.13;;;13.50;89.70;;;;;;5051484;28;20055;-85
2023/11/12 08:28:26;;;;;;;7.82;5.35;;;13.50;89.90;;;;;;5051645;28;20036;-84
2023/11/12 08:30:52;;;;;;;6.80;4.80;;;13.60;90.00;;;;;;5052424;28;20072;-85
2023/11/12 08:33:18;;;;;;;8.10;5.47;;;13.60;90.00;;;;;;5052125;28;20025;-83
2023/11/12 08:35:43;;;;;;;6.70;5.00;;;13.60;89.90;;;;;;5052398;28;20064;-84
2023/11/12 08:38:09;;;;;;;6.60;4.82;;;13.50;89.80;;;;;;5051901;28;20032;-78
2023/11/12 08:40:39;;;;;;;7.10;4.90;;;13.60;89.70;;;;;;5042899;28;20029;-81
2023/11/12 08:43:05;;;;;;;7.22;4.93;;;13.60;89.70;;;;;;5032890;28;20022;-83
2023/11/12 08:45:30;;;;;;;7.05;4.97;;;13.60;90.00;;;;;;5015642;28;20041;-84
2023/11/12 08:47:56;;;;;;;6.97;5.30;;;13.60;89.60;;;;;;5033449;28;20081;-83
2023/11/12 08:50:21;;;;;;;8.27;5.32;;;13.60;89.60;;;;;;5015465;28;20029;-85
2023/11/12 08:52:47;;;;;;;9.60;5.97;;;13.60;89.50;;;;;;5015133;28;20097;-81
2023/11/12 08:55:12;;;;;;;7.47;5.22;;;13.60;89.50;;;;;;5033958;28;20030;-85
2023/11/12 08:57:40;;;;;;;7.43;5.57;;;13.60;89.40;;;;;;5014920;28;20466;-80
2023/11/12 09:00:07;;;;;;;15.48;6.30;;;13.60;89.50;;;;;;5014912;28;20392;-81
2023/11/12 09:02:32;;;;;;;12.32;5.90;;;13.60;89.30;;;;;;5031550;28;20083;-81
2023/11/12 09:04:59;;;;;;;13.55;6.00;;;13.60;89.30;;;;;;5031050;28;20395;-84
2023/11/12 09:07:24;;;;;;;9.68;5.65;;;13.60;89.40;;;;;;5014499;28;20029;-81
2023/11/12 09:09:50;;;;;;;10.68;5.90;;;13.50;89.30;;;;;;5043718;28;20025;-82
2023/11/12 09:12:15;;;;;;;13.95;6.57;;;13.60;89.50;;;;;;5034012;28;20036;-82
2023/11/12 09:14:41;;;;;;;11.02;5.65;;;13.50;89.50;;;;;;5034514;28;20028;-83
2023/11/12 09:17:07;;;;;;;8.77;5.50;;;13.50;89.60;;;;;;5034296;28;20020;-81
2023/11/12 09:19:32;;;;;;;11.00;5.72;;;13.60;89.70;;;;;;5033950;28;20021;-81
2023/11/12 09:21:58;;;;;;;12.57;5.63;;;13.50;89.60;;;;;;5034243;28;20032;-83
2023/11/12 09:24:24;;;;;;;9.60;5.28;;;13.50;89.70;;;;;;5051854;28;20577;-83
2023/11/12 09:26:50;;;;;;;8.68;5.68;;;13.50;89.70;;;;;;5033982;28;20397;-80
2023/11/12 09:29:15;;;;;;;9.05;6.25;;;13.50;89.70;;;;;;5051832;28;20040;-84
2023/11/12 09:31:41;;;;;;;9.43;6.00;;;13.50;89.70;;;;;;5034321;28;20029;-82
2023/11/12 09:34:06;;;;;;;9.23;5.68;;;13.60;89.70;;;;;;5033715;28;20032;-84
2023/11/12 09:36:33;;;;;;;9.30;5.70;;;13.50;89.70;;;;;;5029197;28;20068;-81
2023/11/12 09:38:59;;;;;;;8.73;5.65;;;13.50;89.70;;;;;;5029862;28;20021;-82
2023/11/12 09:41:26;;;;;;;8.38;5.40;;;13.50;89.70;;;;;;5052153;28;20446;-81
2023/11/12 09:43:53;;;;;;;7.90;5.15;;;13.50;89.80;;;;;;5033797;28;20021;-81
2023/11/12 09:46:20;;;;;;;10.40;5.85;;;13.50;89.70;;;;;;5033200;28;20403;-82
2023/11/12 09:48:46;;;;;;;7.68;5.63;;;13.50;89.80;;;;;;5033250;28;20102;-82
2023/11/12 09:51:13;;;;;;;9.48;5.30;;;13.50;89.70;;;;;;5033553;28;20025;-81
2023/11/12 09:53:47;;;;;;;11.40;6.18;;;13.50;89.70;;;;;;5033111;28;20024;-82
2023/11/12 09:56:13;;;;;;;8.70;6.10;;;13.60;89.60;;;;;;5032715;28;20052;-81
2023/11/12 09:58:41;;;;;;;8.60;5.57;;;13.50;89.60;;;;;;5051027;28;20040;-83
2023/11/12 10:01:08;;;;;;;9.18;5.70;;;13.60;89.60;;;;;;5032623;28;20018;-83
2023/11/12 10:03:43;;;;;;;9.98;5.72;;;13.60;89.50;;;;;;5033086;28;20033;-82
2023/11/12 10:06:12;;;;;;;8.68;6.05;;;13.60;89.40;;;;;;5050563;28;20036;-81
2023/11/12 10:08:38;;;;;;;8.43;5.50;;;13.70;89.30;;;;;;5032392;28;20031;-83
2023/11/12 10:11:21;;;;;;;7.70;5.80;;;13.80;89.00;;;;;;5033121;28;20486;-83
2023/11/12 10:13:47;;;;;;;8.75;5.70;;;13.90;88.70;;;;;;5032864;28;20032;-83
2023/11/12 10:16:24;;;;;;;7.85;5.80;;;14.00;88.50;;;;;;5032959;28;20100;-84
2023/11/12 10:18:51;;;;;;;8.38;6.03;;;13.90;88.20;;;;;;5033200;28;20017;-83
2023/11/12 10:21:17;;;;;;;7.78;5.38;;;14.00;88.20;;;;;;5033520;28;20482;-84
2023/11/12 10:23:43;;;;;;;8.70;5.07;;;14.00;88.40;;;;;;5032950;28;20018;-83
2023/11/12 10:26:13;;;;;;;8.18;5.50;;;13.90;88.30;;;;;;5051400;28;20035;-82
2023/11/12 10:28:39;;;;;;;8.32;5.43;;;13.90;88.40;;;;;;5036780;28;20031;-84
2023/11/12 10:31:07;;;;;;;7.53;5.32;;;13.90;88.50;;;;;;5036996;28;20116;-83
2023/11/12 10:33:33;;;;;;;7.20;5.20;;;13.90;88.70;;;;;;5037567;28;20062;-82
2023/11/12 10:36:07;;;;;;;7.95;5.15;;;13.80;88.70;;;;;;5037049;28;20040;-84
2023/11/12 10:38:48;;;;;;;8.63;5.60;;;13.80;88.90;;;;;;5036947;28;20056;-84
2023/11/12 10:41:13;;;;;;;;;;;13.80;89.00;;;;;;5037406;28;20031;-85
2023/11/12 10:43:40;;;;;;;7.07;4.85;;;13.80;89.10;;;;;;5036929;28;19904;-84
2023/11/12 10:46:09;;;;;;;7.30;5.07;;;13.80;89.20;;;;;;5055293;28;20041;-84
2023/11/12 10:48:36;;;;;;;6.88;4.65;;;13.80;89.30;;;;;;5035278;28;20029;-84
2023/11/12 10:51:06;;;;;;;6.85;5.10;;;13.80;89.30;;;;;;5045094;28;20028;-83
2023/11/12 10:53:33;;;;;;;7.30;4.82;;;13.80;89.30;;;;;;5055875;28;20115;-83
2023/11/12 10:56:00;;;;;;;8.07;5.38;;;13.80;89.30;;;;;;5055069;28;20038;-84
2023/11/12 10:58:28;;;;;;;7.22;5.28;;;13.70;89.20;;;;;;5037168;28;20139;-83
2023/11/12 11:01:00;;;;;;;7.20;4.97;;;13.80;89.30;;;;;;5055541;28;20099;-83
2023/11/12 11:03:31;;;;;;;7.20;4.80;;;13.80;89.20;;;;;;5037158;28;20722;-82
2023/11/12 11:06:01;;;;;;;7.35;4.93;;;13.80;89.10;;;;;;5037938;28;20049;-84
2023/11/12 11:08:28;;;;;;;6.55;4.68;;;13.80;89.20;;;;;;5054580;28;20292;-82
2023/11/12 11:10:54;;;;;;;6.68;4.60;;;13.80;89.20;;;;;;5037083;28;20029;-83
2023/11/12 11:13:21;;;;;;;6.88;4.90;;;13.80;89.20;;;;;;5054913;28;20112;-82
2023/11/12 11:15:47;;;;;;;6.93;4.63;;;13.80;89.20;;;;;;5037243;28;20025;-84
2023/11/12 11:18:31;;;;;;;6.65;4.60;;;13.80;89.20;;;;;;5056047;28;20025;-84
2023/11/12 11:21:02;;;;;;;7.85;4.93;;;13.80;89.20;;;;;;5039358;28;20112;-84
2023/11/12 11:24:08;;;;;;;;;;;13.80;89.20;;;;;;5040074;28;20031;-85
2023/11/12 11:26:39;;;;;;;10.82;4.95;;;13.80;89.20;;;;;;4960066;28;19906;-84
2023/11/12 11:29:04;;;;;;;7.70;4.78;;;13.80;89.00;;;;;;4975968;28;20078;-84
2023/11/12 11:31:36;;;;;;;12.88;5.72;;;13.90;89.00;;;;;;5000400;28;20513;-84
2023/11/12 11:34:03;;;;;;;11.45;4.97;;;13.80;88.70;;;;;;5039728;28;20051;-84
2023/11/12 11:36:29;;;;;;;10.55;5.13;;;13.90;88.90;;;;;;5039936;28;20033;-84
2023/11/12 11:39:17;;;;;;;9.57;5.10;;;13.90;88.80;;;;;;5057129;28;20517;-83
2023/11/12 11:41:49;;;;;;;8.70;4.82;;;13.90;88.80;;;;;;5039747;28;20025;-83
2023/11/12 11:44:37;;;;;;;8.80;4.90;;;14.00;88.60;;;;;;5055281;28;20028;-83
2023/11/12 11:47:12;;;;;;;9.18;5.20;;;14.10;88.30;;;;;;5056853;28;20033;-83
2023/11/12 11:49:39;;;;;;;7.72;4.80;;;14.10;88.00;;;;;;5040721;28;20046;-82
2023/11/12 11:52:06;;;;;;;9.40;4.65;;;14.20;87.80;;;;;;5055297;28;20025;-83
2023/11/12 11:54:32;;;;;;;9.52;4.70;;;14.20;87.60;;;;;;5052474;28;20032;-83
2023/11/12 11:56:58;;;;;;;9.15;5.05;;;14.30;87.40;;;;;;5056493;28;20391;-83
2023/11/12 11:59:24;;;;;;;7.57;4.63;;;14.30;87.30;;;;;;5056129;28;20146;-83
2023/11/12 12:01:53;;;;;;;8.30;4.90;;;14.30;87.20;;;;;;5055375;28;20487;-83
2023/11/12 12:04:19;;;;;;;8.70;4.80;;;14.30;87.40;;;;;;5054876;28;20027;-83
2023/11/12 12:06:46;;;;;;;8.82;4.78;;;14.30;87.40;;;;;;5088545;23;20123;-78
2023/11/12 12:09:19;;;;;;;9.00;4.22;;;14.30;87.40;;;;;;5029359;28;20056;-78
2023/11/12 12:11:46;;;;;;;6.97;4.45;;;14.30;87.40;;;;;;5043231;28;20025;-79
2023/11/12 12:14:15;;;;;;;7.20;4.30;;;14.30;87.50;;;;;;5040855;28;20026;-79
2023/11/12 12:16:45;;;;;;;8.88;4.60;;;14.30;87.50;;;;;;5042134;28;20029;-79
2023/11/12 12:19:21;;;;;;;7.32;3.92;;;14.30;87.50;;;;;;5042671;28;20052;-78
2023/11/12 12:21:52;;;;;;;7.00;4.38;;;14.30;87.50;;;;;;5042253;28;20028;-78
2023/11/12 12:24:21;;;;;;;8.23;4.45;;;14.30;87.60;;;;;;5042625;28;20025;-79
2023/11/12 12:26:47;;;;;;;6.95;4.20;;;14.30;87.60;;;;;;5025189;28;20403;-78
2023/11/12 12:29:17;;;;;;;6.00;4.03;;;14.30;87.70;;;;;;5025533;28;20036;-78
2023/11/12 12:31:44;;;;;;;6.32;4.13;;;14.30;87.70;;;;;;5043701;28;20101;-79
2023/11/12 12:34:10;;;;;;;7.07;4.05;;;14.40;87.70;;;;;;5037863;28;20026;-79
2023/11/12 12:36:36;;;;;;;5.60;3.80;;;14.30;87.60;;;;;;5037415;28;20264;-78
2023/11/12 12:39:09;;;;;;;7.22;4.22;;;14.40;87.60;;;;;;5016263;28;20026;-77
2023/11/12 12:41:36;;;;;;;7.68;4.00;;;14.40;87.60;;;;;;4999033;28;20607;-78
2023/11/12 12:44:02;;;;;;;5.72;4.03;;;14.30;87.70;;;;;;5016108;28;20399;-76
2023/11/12 12:46:46;;;;;;;5.97;4.13;;;14.30;87.70;;;;;;5014113;28;20033;-76